Aviation Digital Data Service (ADDS)

Output produced by METARs form (1305 UTC 22 November 2017)
found at http://aviationweather.gov/adds/metars/
 
KIAH 221253Z 35011KT 10SM SCT012 SCT055 14/12 A3020 RMK AO2 SLP225 T01390122